createdAt,value
2017-10-22T00:01:11.908Z,1001.83
2017-10-22T00:02:12.514Z,1001.87
2017-10-22T00:03:13.123Z,1001.82
2017-10-22T00:04:13.731Z,1001.85
2017-10-22T00:05:14.341Z,1001.88
2017-10-22T00:06:14.950Z,1001.75
2017-10-22T00:07:15.561Z,1001.76
2017-10-22T00:08:16.167Z,1001.77
2017-10-22T00:09:16.776Z,1001.72
2017-10-22T00:10:17.384Z,1001.71
2017-10-22T00:11:17.995Z,1001.73
2017-10-22T00:12:18.605Z,1001.69
2017-10-22T00:13:19.215Z,1001.71
2017-10-22T00:14:19.823Z,1001.70
2017-10-22T00:15:20.448Z,1001.80
2017-10-22T00:16:21.055Z,1001.75
2017-10-22T00:17:21.664Z,1001.77
2017-10-22T00:18:22.275Z,1001.74
2017-10-22T00:19:22.884Z,1001.74
2017-10-22T00:20:23.484Z,1001.71
2017-10-22T00:21:24.079Z,1001.67
2017-10-22T00:22:24.690Z,1001.66
2017-10-22T00:23:25.289Z,1001.63
2017-10-22T00:24:25.887Z,1001.67
2017-10-22T00:25:26.494Z,1001.61
2017-10-22T00:26:27.098Z,1001.71
2017-10-22T00:27:27.711Z,1001.71
2017-10-22T00:28:28.326Z,1001.76
2017-10-22T00:29:28.918Z,1001.67
2017-10-22T00:30:29.523Z,1001.72
2017-10-22T00:31:30.125Z,1001.62
2017-10-22T00:32:30.734Z,1001.65
2017-10-22T00:33:31.345Z,1001.63
2017-10-22T00:34:31.950Z,1001.66
2017-10-22T00:35:32.556Z,1001.62
2017-10-22T00:36:33.161Z,1001.63
2017-10-22T00:37:33.756Z,1001.65
2017-10-22T00:38:34.358Z,1001.69
2017-10-22T00:39:34.968Z,1001.68
2017-10-22T00:40:35.558Z,1001.67
2017-10-22T00:41:36.173Z,1001.65
2017-10-22T00:42:36.775Z,1001.67
2017-10-22T00:43:37.362Z,1001.71
2017-10-22T00:44:37.965Z,1001.68
2017-10-22T00:45:38.560Z,1001.73
2017-10-22T00:46:39.164Z,1001.65
2017-10-22T00:47:39.764Z,1001.65
2017-10-22T00:48:40.355Z,1001.66
2017-10-22T00:49:40.971Z,1001.56
2017-10-22T00:50:41.568Z,1001.67
2017-10-22T00:51:42.163Z,1001.53
2017-10-22T00:52:42.768Z,1001.56
2017-10-22T00:53:43.375Z,1001.61
2017-10-22T00:54:43.976Z,1001.53
2017-10-22T00:55:44.580Z,1001.58
2017-10-22T00:56:45.186Z,1001.55
2017-10-22T00:57:45.795Z,1001.58
2017-10-22T00:58:46.408Z,1001.47
2017-10-22T00:59:47.009Z,1001.49
2017-10-22T01:00:47.620Z,1001.46
2017-10-22T01:01:48.226Z,1001.46
2017-10-22T01:02:48.836Z,1001.42
2017-10-22T01:03:49.442Z,1001.44
2017-10-22T01:04:50.047Z,1001.42
2017-10-22T01:05:50.648Z,1001.46
2017-10-22T01:06:51.250Z,1001.45
2017-10-22T01:07:51.855Z,1001.48
2017-10-22T01:08:52.464Z,1001.44
2017-10-22T01:09:53.073Z,1001.45
2017-10-22T01:10:53.669Z,1001.48
2017-10-22T01:11:54.264Z,1001.52
2017-10-22T01:12:54.877Z,1001.50
2017-10-22T01:13:55.484Z,1001.59
2017-10-22T01:14:56.095Z,1001.53
2017-10-22T01:15:56.702Z,1001.58
2017-10-22T01:16:57.300Z,1001.64
2017-10-22T01:17:57.914Z,1001.58
2017-10-22T01:18:58.524Z,1001.46
2017-10-22T01:19:59.122Z,1001.63
2017-10-22T01:20:59.720Z,1001.64
2017-10-22T01:22:00.326Z,1001.63
2017-10-22T01:23:00.931Z,1001.60
2017-10-22T01:24:01.540Z,1001.55
2017-10-22T01:25:02.154Z,1001.56
2017-10-22T01:26:02.749Z,1001.60
2017-10-22T01:27:03.353Z,1001.52
2017-10-22T01:28:03.952Z,1001.49
2017-10-22T01:29:04.554Z,1001.46
2017-10-22T01:30:05.154Z,1001.46
2017-10-22T01:31:05.750Z,1001.42
2017-10-22T01:32:06.355Z,1001.38
2017-10-22T01:33:06.961Z,1001.41
2017-10-22T01:34:07.560Z,1001.47
2017-10-22T01:35:08.174Z,1001.38
2017-10-22T01:36:08.780Z,1001.46
2017-10-22T01:37:09.382Z,1001.33
2017-10-22T01:38:09.988Z,1001.24
2017-10-22T01:39:10.593Z,1001.34
2017-10-22T01:40:11.190Z,1001.28
2017-10-22T01:41:11.791Z,1001.29
2017-10-22T01:42:12.398Z,1001.16
2017-10-22T01:43:13.002Z,1001.33
2017-10-22T01:44:13.612Z,1001.27
2017-10-22T01:45:14.220Z,1001.25
2017-10-22T01:46:14.830Z,1001.25
2017-10-22T01:47:15.439Z,1001.16
2017-10-22T01:48:16.053Z,1001.25
2017-10-22T01:49:16.661Z,1001.24
2017-10-22T01:50:17.258Z,1001.10
2017-10-22T01:51:17.856Z,1001.17
2017-10-22T01:52:18.457Z,1001.15
2017-10-22T01:53:19.070Z,1001.10
2017-10-22T01:54:19.677Z,1001.13
2017-10-22T01:55:20.288Z,1001.12
2017-10-22T01:56:20.895Z,1001.02
2017-10-22T01:57:21.493Z,1001.04
2017-10-22T01:58:22.095Z,1000.99
2017-10-22T01:59:22.723Z,1000.98
2017-10-22T02:00:23.311Z,1000.81
2017-10-22T02:01:23.919Z,1001.05
2017-10-22T02:02:24.526Z,1001.03
2017-10-22T02:03:25.135Z,1001.05
2017-10-22T02:04:25.746Z,1000.97
2017-10-22T02:05:26.349Z,1000.95
2017-10-22T02:06:26.946Z,1001.04
2017-10-22T02:07:27.557Z,1001.19
2017-10-22T02:08:28.159Z,1000.96
2017-10-22T02:09:28.757Z,1001.11
2017-10-22T02:10:29.366Z,1001.14
2017-10-22T02:11:29.979Z,1001.03
2017-10-22T02:12:30.593Z,1001.07
2017-10-22T02:13:31.185Z,1001.11
2017-10-22T02:14:31.794Z,1001.09
2017-10-22T02:15:32.403Z,1001.17
2017-10-22T02:16:33.006Z,1001.14
2017-10-22T02:17:33.603Z,1001.12
2017-10-22T02:18:34.204Z,1001.09
2017-10-22T02:19:34.807Z,1001.16
2017-10-22T02:20:35.415Z,1001.05
2017-10-22T02:21:36.010Z,1001.17
2017-10-22T02:22:36.606Z,1000.92
2017-10-22T02:23:37.214Z,1000.95
2017-10-22T02:24:37.819Z,1001.01
2017-10-22T02:25:38.430Z,1000.97
2017-10-22T02:26:39.028Z,1001.04
2017-10-22T02:27:39.640Z,1001.08
2017-10-22T02:28:40.249Z,1000.98
2017-10-22T02:29:40.851Z,1000.84
2017-10-22T02:30:41.458Z,1000.82
2017-10-22T02:31:42.066Z,1000.86
2017-10-22T02:32:42.675Z,1000.90
2017-10-22T02:33:43.278Z,1000.94
2017-10-22T02:34:43.876Z,1000.82
2017-10-22T02:35:44.470Z,1000.91
2017-10-22T02:36:45.080Z,1000.94
2017-10-22T02:37:45.674Z,1000.82
2017-10-22T02:38:46.273Z,1000.84
2017-10-22T02:39:46.870Z,1000.84
2017-10-22T02:40:47.472Z,1000.82
2017-10-22T02:41:48.082Z,1000.88
2017-10-22T02:42:48.693Z,1000.79
2017-10-22T02:43:49.302Z,1000.82
2017-10-22T02:44:49.917Z,1000.79
2017-10-22T02:45:50.525Z,1000.75
2017-10-22T02:46:51.135Z,1000.74
2017-10-22T02:47:51.745Z,1000.77
2017-10-22T02:48:52.354Z,1000.84
2017-10-22T02:49:52.951Z,1000.82
2017-10-22T02:50:53.545Z,1000.75
2017-10-22T02:51:54.154Z,1000.75
2017-10-22T02:52:54.761Z,1000.74
2017-10-22T02:53:55.369Z,1000.70
2017-10-22T02:54:55.971Z,1000.63
2017-10-22T02:55:56.578Z,1000.82
2017-10-22T02:56:57.180Z,1000.78
2017-10-22T02:57:57.778Z,1000.72
2017-10-22T02:58:58.388Z,1000.73
2017-10-22T02:59:58.992Z,1000.66
2017-10-22T03:00:59.596Z,1000.56
2017-10-22T03:02:00.202Z,1000.68
2017-10-22T03:03:00.814Z,1000.68
2017-10-22T03:04:01.423Z,1000.86
2017-10-22T03:05:02.029Z,1000.68
2017-10-22T03:06:02.633Z,1000.53
2017-10-22T03:07:03.240Z,1000.73
2017-10-22T03:08:03.850Z,1000.68
2017-10-22T03:09:04.454Z,1000.65
2017-10-22T03:10:05.049Z,1000.65
2017-10-22T03:11:05.641Z,1000.80
2017-10-22T03:12:06.243Z,1000.71
2017-10-22T03:13:06.862Z,1000.75
2017-10-22T03:14:07.450Z,1000.72
2017-10-22T03:15:08.055Z,1000.68
2017-10-22T03:16:08.653Z,1000.66
2017-10-22T03:17:09.259Z,1000.69
2017-10-22T03:18:09.865Z,1000.74
2017-10-22T03:19:10.457Z,1000.83
2017-10-22T03:20:11.053Z,1000.71
2017-10-22T03:21:11.655Z,1000.63
2017-10-22T03:22:12.259Z,1000.72
2017-10-22T03:23:12.867Z,1000.75
2017-10-22T03:24:13.472Z,1000.84
2017-10-22T03:25:14.072Z,1000.80
2017-10-22T03:26:14.679Z,1000.76
2017-10-22T03:27:15.291Z,1000.85
2017-10-22T03:28:15.906Z,1000.86
2017-10-22T03:29:16.508Z,1000.79
2017-10-22T03:30:17.104Z,1000.83
2017-10-22T03:31:17.704Z,1000.78
2017-10-22T03:32:18.310Z,1000.80
2017-10-22T03:33:18.923Z,1000.82
2017-10-22T03:34:19.534Z,1000.79
2017-10-22T03:35:20.130Z,1000.83
2017-10-22T03:36:20.738Z,1000.85
2017-10-22T03:37:21.330Z,1000.83
2017-10-22T03:38:21.939Z,1000.89
2017-10-22T03:39:22.532Z,1000.84
2017-10-22T03:40:23.142Z,1000.88
2017-10-22T03:41:23.749Z,1000.78
2017-10-22T03:42:24.347Z,1000.87
2017-10-22T03:43:24.961Z,1000.79
2017-10-22T03:44:25.563Z,1000.82
2017-10-22T03:45:26.166Z,1000.75
2017-10-22T03:46:26.777Z,1000.80
2017-10-22T03:47:27.385Z,1000.76
2017-10-22T03:48:27.990Z,1000.82
2017-10-22T03:49:28.603Z,1000.75
2017-10-22T03:50:29.206Z,1000.73
2017-10-22T03:51:29.808Z,1000.65
2017-10-22T03:52:30.418Z,1000.68
2017-10-22T03:53:31.025Z,1000.74
2017-10-22T03:54:31.633Z,1000.78
2017-10-22T03:55:32.229Z,1000.79
2017-10-22T03:56:32.828Z,1000.81
2017-10-22T03:57:33.424Z,1000.82
2017-10-22T03:58:34.025Z,1000.78
2017-10-22T03:59:34.641Z,1000.62
2017-10-22T04:00:35.244Z,1000.73
2017-10-22T04:01:35.838Z,1000.71
2017-10-22T04:02:36.435Z,1000.72
2017-10-22T04:03:37.036Z,1000.70
2017-10-22T04:04:37.645Z,1000.69
2017-10-22T04:05:38.246Z,1000.68
2017-10-22T04:06:38.849Z,1000.65
2017-10-22T04:07:39.449Z,1000.71
2017-10-22T04:08:40.049Z,1000.63
2017-10-22T04:09:40.636Z,1000.60
2017-10-22T04:10:41.243Z,1000.66
2017-10-22T04:11:41.833Z,1000.56
2017-10-22T04:12:42.440Z,1000.53
2017-10-22T04:13:43.050Z,1000.51
2017-10-22T04:14:43.651Z,1000.69
2017-10-22T04:15:44.258Z,1000.37
2017-10-22T04:16:44.862Z,1000.56
2017-10-22T04:17:45.460Z,1000.51
2017-10-22T04:18:46.062Z,1000.50
2017-10-22T04:19:46.673Z,1000.48
2017-10-22T04:20:47.282Z,1000.51
2017-10-22T04:21:47.885Z,1000.52
2017-10-22T04:22:48.496Z,1000.45
2017-10-22T04:23:49.094Z,1000.57
2017-10-22T04:24:49.699Z,1000.58
2017-10-22T04:25:50.308Z,1000.45
2017-10-22T04:26:50.920Z,1000.52
2017-10-22T04:27:51.521Z,1000.45
2017-10-22T04:28:52.127Z,1000.43
2017-10-22T04:29:52.730Z,1000.46
2017-10-22T04:30:53.332Z,1000.57
2017-10-22T04:31:53.933Z,1000.52
2017-10-22T04:32:54.528Z,1000.43
2017-10-22T04:33:55.143Z,1000.47
2017-10-22T04:34:55.746Z,1000.43
2017-10-22T04:35:56.351Z,1000.46
2017-10-22T04:36:56.957Z,1000.43
2017-10-22T04:37:57.564Z,1000.42
2017-10-22T04:38:58.166Z,1000.51
2017-10-22T04:39:58.770Z,1000.48
2017-10-22T04:40:59.373Z,1000.52
2017-10-22T04:41:59.983Z,1000.45
2017-10-22T04:43:00.563Z,1000.36
2017-10-22T04:44:01.166Z,1000.44
2017-10-22T04:45:01.767Z,1000.35
2017-10-22T04:46:02.378Z,1000.41
2017-10-22T04:47:02.982Z,1000.54
2017-10-22T04:48:03.581Z,1000.45
2017-10-22T04:49:04.188Z,1000.41
2017-10-22T04:50:04.787Z,1000.48
2017-10-22T04:51:05.389Z,1000.54
2017-10-22T04:52:05.997Z,1000.50
2017-10-22T04:53:06.603Z,1000.49
2017-10-22T04:54:07.208Z,1000.63
2017-10-22T04:55:07.805Z,1000.49
2017-10-22T04:56:08.413Z,1000.45
2017-10-22T04:57:09.018Z,1000.50
2017-10-22T04:58:09.622Z,1000.45
2017-10-22T04:59:10.226Z,1000.51
2017-10-22T05:00:10.836Z,1000.51
2017-10-22T05:01:11.433Z,1000.53
2017-10-22T05:02:12.031Z,1000.61
2017-10-22T05:03:12.627Z,1000.56
2017-10-22T05:04:13.243Z,1000.54
2017-10-22T05:05:13.821Z,1000.56
2017-10-22T05:06:14.431Z,1000.55
2017-10-22T05:07:15.037Z,1000.44
2017-10-22T05:08:15.648Z,1000.51
2017-10-22T05:09:16.253Z,1000.45
2017-10-22T05:10:16.861Z,1000.45
2017-10-22T05:11:17.469Z,1000.43
2017-10-22T05:12:18.063Z,1000.47
2017-10-22T05:13:18.658Z,1000.47
2017-10-22T05:14:19.263Z,1000.42
2017-10-22T05:15:19.873Z,1000.42
2017-10-22T05:16:20.481Z,1000.43
2017-10-22T05:17:21.070Z,1000.46
2017-10-22T05:18:21.666Z,1000.47
2017-10-22T05:19:22.273Z,1000.38
2017-10-22T05:20:22.881Z,1000.40
2017-10-22T05:21:23.484Z,1000.52
2017-10-22T05:22:24.088Z,1000.44
2017-10-22T05:23:24.696Z,1000.46
2017-10-22T05:24:25.298Z,1000.46
2017-10-22T05:25:25.896Z,1000.49
2017-10-22T05:26:26.508Z,1000.53
2017-10-22T05:27:27.098Z,1000.44
2017-10-22T05:28:27.692Z,1000.51
2017-10-22T05:29:28.293Z,1000.48
2017-10-22T05:30:28.902Z,1000.44
2017-10-22T05:31:29.515Z,1000.38
2017-10-22T05:32:30.117Z,1000.34
2017-10-22T05:33:30.708Z,1000.47
2017-10-22T05:34:31.317Z,1000.40
2017-10-22T05:35:31.912Z,1000.38
2017-10-22T05:36:32.522Z,1000.48
2017-10-22T05:37:33.126Z,1000.39
2017-10-22T05:38:33.735Z,1000.52
2017-10-22T05:39:34.342Z,1000.54
2017-10-22T05:40:34.935Z,1000.57
2017-10-22T05:41:35.534Z,999.92
2017-10-22T05:42:36.136Z,1000.56
2017-10-22T05:43:36.744Z,1000.62
2017-10-22T05:44:37.341Z,1000.60
2017-10-22T05:45:37.951Z,1000.65
2017-10-22T05:46:38.562Z,1000.65
2017-10-22T05:47:39.165Z,1000.58
2017-10-22T05:48:39.765Z,1000.60
2017-10-22T05:49:40.366Z,1000.57
2017-10-22T05:50:40.978Z,1000.70
2017-10-22T05:51:41.585Z,1000.63
2017-10-22T05:52:42.180Z,1000.54
2017-10-22T05:53:42.782Z,1000.60
2017-10-22T05:54:43.385Z,1000.71
2017-10-22T05:55:43.996Z,1000.69
2017-10-22T05:56:44.606Z,1000.75
2017-10-22T05:57:45.213Z,1000.71
2017-10-22T05:58:45.823Z,1000.66
2017-10-22T05:59:46.421Z,1000.59
2017-10-22T06:00:47.021Z,1000.59
2017-10-22T06:01:47.623Z,1000.68
2017-10-22T06:02:48.234Z,1000.70
2017-10-22T06:03:48.840Z,1000.60
2017-10-22T06:04:49.434Z,1000.78
2017-10-22T06:05:50.040Z,1000.68
2017-10-22T06:06:50.641Z,1000.61
2017-10-22T06:07:51.253Z,1000.64
2017-10-22T06:08:51.863Z,1000.58
2017-10-22T06:09:52.459Z,1000.66
2017-10-22T06:10:53.058Z,1000.64
2017-10-22T06:11:53.672Z,1000.66
2017-10-22T06:12:54.279Z,1000.64
2017-10-22T06:13:54.881Z,1000.71
2017-10-22T06:14:55.477Z,1000.76
2017-10-22T06:15:56.080Z,1000.61
2017-10-22T06:16:56.683Z,1000.81
2017-10-22T06:17:57.281Z,1000.75
2017-10-22T06:18:57.882Z,1000.77
2017-10-22T06:19:58.477Z,1000.80
2017-10-22T06:20:59.086Z,1000.77
2017-10-22T06:21:59.697Z,1000.79
2017-10-22T06:23:00.298Z,1000.80
2017-10-22T06:24:00.909Z,1000.72
2017-10-22T06:25:01.513Z,1000.83
2017-10-22T06:26:02.126Z,1000.78
2017-10-22T06:27:02.732Z,1000.77
2017-10-22T06:28:03.338Z,1000.85
2017-10-22T06:29:03.950Z,1000.85
2017-10-22T06:30:04.563Z,1000.81
2017-10-22T06:31:05.174Z,1000.90
2017-10-22T06:32:05.783Z,1000.79
2017-10-22T06:33:06.386Z,1000.96
2017-10-22T06:34:06.991Z,1000.90
2017-10-22T06:35:07.605Z,1000.89
2017-10-22T06:36:08.202Z,1001.01
2017-10-22T06:37:08.814Z,1000.94
2017-10-22T06:38:09.427Z,1000.86
2017-10-22T06:39:10.041Z,1000.88
2017-10-22T06:40:10.638Z,1000.94
2017-10-22T06:41:11.249Z,1000.85
2017-10-22T06:42:11.862Z,1000.72
2017-10-22T06:43:12.473Z,1000.97
2017-10-22T06:44:13.079Z,1001.03
2017-10-22T06:45:13.694Z,1001.00
2017-10-22T06:46:14.308Z,1000.98
2017-10-22T06:47:14.909Z,1000.97
2017-10-22T06:48:15.522Z,1001.00
2017-10-22T06:49:16.133Z,1001.07
2017-10-22T06:50:16.746Z,1000.98
2017-10-22T06:51:17.353Z,1001.15
2017-10-22T06:52:17.964Z,1001.03
2017-10-22T06:53:18.576Z,1001.04
2017-10-22T06:54:19.184Z,1001.15
2017-10-22T06:55:19.791Z,1001.08
2017-10-22T06:56:20.401Z,1001.10
2017-10-22T06:57:21.000Z,1001.05
2017-10-22T06:58:21.597Z,1001.05
2017-10-22T06:59:22.223Z,1000.79
2017-10-22T07:00:22.833Z,1001.09
2017-10-22T07:01:23.436Z,1001.06
2017-10-22T07:02:24.048Z,1001.07
2017-10-22T07:03:24.656Z,1001.20
2017-10-22T07:04:25.270Z,1001.15
2017-10-22T07:05:25.882Z,1001.12
2017-10-22T07:06:26.493Z,1001.13
2017-10-22T07:07:27.111Z,1001.26
2017-10-22T07:08:27.721Z,1001.18
2017-10-22T07:09:28.331Z,1001.08
2017-10-22T07:10:28.942Z,1001.16
2017-10-22T07:11:29.547Z,1001.11
2017-10-22T07:12:30.162Z,1001.19
2017-10-22T07:13:30.772Z,1001.19
2017-10-22T07:17:57.640Z,1001.25
2017-10-22T07:18:58.246Z,1001.17
2017-10-22T07:19:58.859Z,1001.23
2017-10-22T07:20:59.475Z,1001.26
2017-10-22T07:22:00.072Z,1001.20
2017-10-22T07:23:00.680Z,1001.29
2017-10-22T07:24:01.288Z,1001.27
2017-10-22T07:25:01.900Z,1001.37
2017-10-22T07:26:02.516Z,1001.40
2017-10-22T07:27:03.128Z,1001.40
2017-10-22T07:28:03.735Z,1001.41
2017-10-22T07:29:04.340Z,1001.36
2017-10-22T07:30:04.953Z,1001.39
2017-10-22T07:31:05.566Z,1001.37
2017-10-22T07:32:06.183Z,1001.40
2017-10-22T07:33:06.792Z,1001.40
2017-10-22T07:34:07.407Z,1001.28
2017-10-22T07:35:08.011Z,1001.38
2017-10-22T07:36:08.621Z,1001.47
2017-10-22T07:37:09.237Z,1001.38
2017-10-22T07:38:09.854Z,1001.43
2017-10-22T07:39:10.465Z,1001.38
2017-10-22T07:40:11.074Z,1001.37
2017-10-22T07:41:11.675Z,1001.41
2017-10-22T07:42:12.277Z,1001.38
2017-10-22T07:43:12.893Z,1001.40
2017-10-22T07:44:13.504Z,1001.33
2017-10-22T07:45:14.106Z,1001.41
2017-10-22T07:46:14.718Z,1001.41
2017-10-22T07:47:15.326Z,1001.45
2017-10-22T07:48:15.941Z,1001.45
2017-10-22T07:49:16.547Z,1001.41
2017-10-22T07:50:17.163Z,1001.39
2017-10-22T07:51:17.776Z,1001.36
2017-10-22T07:52:18.387Z,1001.36
2017-10-22T07:53:19.000Z,1001.39
2017-10-22T07:54:19.607Z,1001.36
2017-10-22T07:55:20.213Z,1001.43
2017-10-22T07:56:20.828Z,1001.35
2017-10-22T07:57:21.437Z,1001.34
2017-10-22T07:58:22.045Z,1001.30
2017-10-22T07:59:22.647Z,1001.33
2017-10-22T08:00:23.265Z,1001.42
2017-10-22T08:01:23.880Z,1001.33
2017-10-22T08:02:24.494Z,1001.36
2017-10-22T08:03:25.106Z,1001.36
2017-10-22T08:04:25.706Z,1001.37
2017-10-22T08:05:26.319Z,1001.37
2017-10-22T08:06:26.924Z,1001.41
2017-10-22T08:07:27.524Z,1001.37
2017-10-22T08:08:28.125Z,1001.38
2017-10-22T08:09:28.733Z,1001.41
2017-10-22T08:10:29.342Z,1001.41
2017-10-22T08:11:29.956Z,1001.40
2017-10-22T08:12:30.570Z,1001.37
2017-10-22T08:13:31.186Z,1001.37
2017-10-22T08:14:31.802Z,1001.35
2017-10-22T08:15:32.421Z,1001.38
2017-10-22T08:16:33.037Z,1001.39
2017-10-22T08:17:33.640Z,1001.42
2017-10-22T08:18:34.257Z,1001.31
2017-10-22T08:19:34.859Z,1001.46
2017-10-22T08:20:35.468Z,1001.44
2017-10-22T08:21:36.083Z,1001.45
2017-10-22T08:22:36.696Z,1001.33
2017-10-22T08:23:37.298Z,1001.51
2017-10-22T08:24:37.910Z,1001.46
2017-10-22T08:25:38.528Z,1001.46
2017-10-22T08:26:39.138Z,1001.52
2017-10-22T08:27:39.751Z,1001.53
2017-10-22T08:28:40.365Z,1001.52
2017-10-22T08:29:40.976Z,1001.47
2017-10-22T08:30:41.589Z,1001.61
2017-10-22T08:31:42.208Z,1001.49
2017-10-22T08:32:42.802Z,1001.60
2017-10-22T08:33:43.405Z,1001.44
2017-10-22T08:34:44.024Z,1001.38
2017-10-22T08:35:44.636Z,1001.61
2017-10-22T08:36:45.244Z,1001.50
2017-10-22T08:37:45.856Z,1001.49
2017-10-22T08:38:46.458Z,1001.59
2017-10-22T08:39:47.067Z,1001.56
2017-10-22T08:40:47.684Z,1001.47
2017-10-22T08:41:48.297Z,1001.52
2017-10-22T08:42:48.912Z,1001.50
2017-10-22T08:43:49.529Z,1001.47
2017-10-22T08:44:50.132Z,1001.51
2017-10-22T08:45:50.745Z,1001.48
2017-10-22T08:46:51.349Z,1001.51
2017-10-22T08:47:51.963Z,1001.58
2017-10-22T08:48:52.578Z,1001.58
2017-10-22T08:49:53.193Z,1001.53
2017-10-22T08:50:53.803Z,1001.58
2017-10-22T08:51:54.412Z,1001.63
2017-10-22T08:52:55.027Z,1001.55
2017-10-22T08:53:55.640Z,1001.59
2017-10-22T08:54:56.243Z,1001.55
2017-10-22T08:55:56.855Z,1001.55
2017-10-22T08:56:57.462Z,1001.59
2017-10-22T08:57:58.080Z,1001.63
2017-10-22T08:58:58.695Z,1001.69
2017-10-22T08:59:59.313Z,1001.62
2017-10-22T09:00:59.927Z,1001.64
2017-10-22T09:02:00.539Z,1001.69
2017-10-22T09:03:01.148Z,1001.65
2017-10-22T09:04:01.753Z,1001.73
2017-10-22T09:05:02.361Z,1001.70
2017-10-22T09:06:02.976Z,1001.75
2017-10-22T09:07:03.603Z,1001.77
2017-10-22T09:08:04.207Z,1001.75
2017-10-22T09:09:04.819Z,1001.77
2017-10-22T09:10:05.437Z,1001.83
2017-10-22T09:11:06.035Z,1001.92
2017-10-22T09:12:06.656Z,1001.83
2017-10-22T09:13:07.270Z,1001.79
2017-10-22T09:14:07.883Z,1001.83
2017-10-22T09:15:08.489Z,1001.88
2017-10-22T09:16:09.112Z,1001.89
2017-10-22T09:17:09.724Z,1001.83
2017-10-22T09:18:10.342Z,1001.92
2017-10-22T09:19:10.948Z,1001.88
2017-10-22T09:20:11.563Z,1001.97
2017-10-22T09:21:12.176Z,1001.90
2017-10-22T09:22:12.790Z,1002.00
2017-10-22T09:23:13.400Z,1001.91
2017-10-22T09:24:14.015Z,1001.93
2017-10-22T09:25:14.626Z,1001.93
2017-10-22T09:26:15.234Z,1001.93
2017-10-22T09:27:15.845Z,1001.93
2017-10-22T09:28:16.453Z,1001.93
2017-10-22T09:29:17.056Z,1001.96
2017-10-22T09:30:17.670Z,1001.90
2017-10-22T09:31:18.288Z,1001.88
2017-10-22T09:32:18.899Z,1001.87
2017-10-22T09:33:19.509Z,1001.91
2017-10-22T09:34:20.153Z,1001.96
2017-10-22T09:35:20.741Z,1001.95
2017-10-22T09:36:21.356Z,1001.91
2017-10-22T09:37:21.970Z,1001.91
2017-10-22T09:38:22.575Z,1001.88
2017-10-22T09:39:23.179Z,1001.89
2017-10-22T09:40:23.794Z,1001.94
2017-10-22T09:41:24.400Z,1001.91
2017-10-22T09:42:24.999Z,1001.98
2017-10-22T09:43:25.613Z,1001.94
2017-10-22T09:44:26.215Z,1001.92
2017-10-22T09:45:26.828Z,1001.95
2017-10-22T09:46:27.427Z,1002.01
2017-10-22T09:47:28.047Z,1001.96
2017-10-22T09:48:28.659Z,1001.94
2017-10-22T09:49:29.262Z,1001.94
2017-10-22T09:50:29.875Z,1001.92
2017-10-22T09:51:30.488Z,1001.89
2017-10-22T09:52:31.100Z,1001.94
2017-10-22T09:53:31.711Z,1001.87
2017-10-22T09:54:32.320Z,1001.94
2017-10-22T09:55:32.935Z,1001.97
2017-10-22T09:56:33.538Z,1001.97
2017-10-22T09:57:34.151Z,1001.97
2017-10-22T09:58:34.768Z,1001.99
2017-10-22T09:59:35.387Z,1001.89
2017-10-22T10:00:36.000Z,1002.04
2017-10-22T10:01:36.601Z,1002.00
2017-10-22T10:02:37.218Z,1002.07
2017-10-22T10:03:37.835Z,1002.07
2017-10-22T10:04:38.448Z,1002.10
2017-10-22T10:05:39.064Z,1002.12
2017-10-22T10:06:39.686Z,1002.10
2017-10-22T10:07:40.297Z,1002.07
2017-10-22T10:08:40.919Z,1002.12
2017-10-22T10:09:41.535Z,1002.02
2017-10-22T10:10:42.146Z,1002.14
2017-10-22T10:11:42.756Z,1002.12
2017-10-22T10:12:43.372Z,1002.16
2017-10-22T10:13:43.986Z,1002.04
2017-10-22T10:14:44.601Z,1002.12
2017-10-22T10:15:45.212Z,1002.13
2017-10-22T10:16:45.828Z,1002.15
2017-10-22T10:17:46.443Z,1002.15
2017-10-22T10:18:47.055Z,1002.17
2017-10-22T10:19:47.670Z,1002.17
2017-10-22T10:20:48.289Z,1002.17
2017-10-22T10:21:48.933Z,1002.20
2017-10-22T10:22:49.513Z,1002.17
2017-10-22T10:23:50.115Z,1002.19
2017-10-22T10:24:50.727Z,1002.22
2017-10-22T10:25:51.335Z,1002.25
2017-10-22T10:26:51.950Z,1002.26
2017-10-22T10:27:52.560Z,1002.33
2017-10-22T10:28:53.165Z,1002.29
2017-10-22T10:29:53.774Z,1002.29
2017-10-22T10:30:54.390Z,1002.28
2017-10-22T10:31:55.012Z,1002.35
2017-10-22T10:32:55.623Z,1002.36
2017-10-22T10:33:56.235Z,1002.34
2017-10-22T10:34:56.853Z,1002.29
2017-10-22T10:35:57.468Z,1002.35
2017-10-22T10:36:58.086Z,1002.39
2017-10-22T10:37:58.695Z,1002.38
2017-10-22T10:38:59.310Z,1002.38
2017-10-22T10:39:59.930Z,1002.39
2017-10-22T10:41:00.530Z,1002.39
2017-10-22T10:42:01.138Z,1002.38
2017-10-22T10:43:01.761Z,1002.43
2017-10-22T10:44:02.386Z,1002.37
2017-10-22T10:45:02.979Z,1002.43
2017-10-22T10:46:03.584Z,1002.41
2017-10-22T10:47:04.198Z,1002.38
2017-10-22T10:48:04.798Z,1002.34
2017-10-22T10:49:05.411Z,1002.31
2017-10-22T10:50:06.018Z,1002.40
2017-10-22T10:51:06.625Z,1002.37
2017-10-22T10:52:07.225Z,1002.38
2017-10-22T10:53:07.844Z,1002.34
2017-10-22T10:54:08.455Z,1002.39
2017-10-22T10:55:09.070Z,1002.35
2017-10-22T10:56:09.684Z,1002.33
2017-10-22T10:57:10.287Z,1002.36
2017-10-22T10:58:10.906Z,1002.42
2017-10-22T10:59:11.519Z,1002.38
2017-10-22T11:00:12.134Z,1002.38
2017-10-22T11:01:12.745Z,1002.42
2017-10-22T11:02:13.357Z,1002.45
2017-10-22T11:03:13.961Z,1002.43
2017-10-22T11:04:14.574Z,1002.43
2017-10-22T11:05:15.192Z,1002.47
2017-10-22T11:06:15.792Z,1002.43
2017-10-22T11:07:16.392Z,1002.53
2017-10-22T11:08:16.997Z,1002.56
2017-10-22T11:09:17.606Z,1002.54
2017-10-22T11:10:18.218Z,1002.51
2017-10-22T11:11:18.838Z,1002.55
2017-10-22T11:12:19.447Z,1002.49
2017-10-22T11:13:20.060Z,1002.50
2017-10-22T11:14:20.677Z,1002.51
2017-10-22T11:15:21.291Z,1002.49
2017-10-22T11:16:21.909Z,1002.42
2017-10-22T11:17:22.525Z,1002.45
2017-10-22T11:18:23.136Z,1002.47
2017-10-22T11:19:23.755Z,1002.46
2017-10-22T11:20:24.369Z,1002.47
2017-10-22T11:21:24.984Z,1002.45
2017-10-22T11:22:25.597Z,1002.50
2017-10-22T11:23:26.204Z,1002.46
2017-10-22T11:24:26.827Z,1002.48
2017-10-22T11:25:27.432Z,1002.49
2017-10-22T11:26:28.032Z,1002.52
2017-10-22T11:27:28.649Z,1002.40
2017-10-22T11:28:29.260Z,1002.53
2017-10-22T11:29:29.862Z,1002.50
2017-10-22T11:30:30.476Z,1002.50
2017-10-22T11:31:31.091Z,1002.48
2017-10-22T11:32:31.710Z,1002.46
2017-10-22T11:33:32.313Z,1002.50
2017-10-22T11:34:32.926Z,1002.52
2017-10-22T11:35:33.534Z,1002.55
2017-10-22T11:36:34.161Z,1002.49
2017-10-22T11:37:34.771Z,1002.49
2017-10-22T11:38:35.389Z,1002.51
2017-10-22T11:39:36.002Z,1002.42
2017-10-22T11:40:36.622Z,1002.49
2017-10-22T11:41:37.222Z,1002.48
2017-10-22T11:42:37.833Z,1002.44
2017-10-22T11:43:38.437Z,1002.45
2017-10-22T11:44:39.053Z,1002.49
2017-10-22T11:45:39.668Z,1002.36
2017-10-22T11:46:40.281Z,1002.48
2017-10-22T11:47:40.908Z,1002.48
2017-10-22T11:48:41.529Z,1002.43
2017-10-22T11:49:42.144Z,1002.40
2017-10-22T11:50:42.762Z,1002.40
2017-10-22T11:51:43.385Z,1002.43
2017-10-22T11:52:44.000Z,1002.43
2017-10-22T11:53:44.612Z,1002.45
2017-10-22T11:54:45.256Z,1002.43
2017-10-22T11:55:45.840Z,1002.46
2017-10-22T11:56:46.463Z,1002.46
2017-10-22T11:57:47.087Z,1002.53
2017-10-22T11:58:47.693Z,1002.48
2017-10-22T11:59:48.341Z,1002.46
2017-10-22T12:00:48.946Z,1002.38
2017-10-22T12:01:49.573Z,1002.47
2017-10-22T12:02:50.175Z,1002.46
2017-10-22T12:03:50.783Z,1002.47
2017-10-22T12:04:51.409Z,1002.40
2017-10-22T12:05:52.024Z,1002.46
2017-10-22T12:06:52.633Z,1002.44
2017-10-22T12:07:53.252Z,1002.50
2017-10-22T12:08:53.868Z,1002.51
2017-10-22T12:09:54.475Z,1002.50
2017-10-22T12:10:55.092Z,1002.49
2017-10-22T12:11:55.716Z,1002.56
2017-10-22T12:12:56.333Z,1002.52
2017-10-22T12:13:56.940Z,1002.47
2017-10-22T12:14:57.549Z,1002.48
2017-10-22T12:15:58.181Z,1002.54
2017-10-22T12:16:58.783Z,1002.50